Accueil
METAR-TAF:

METAR-TAF

Aéroports :

Spangdahlem Air Base

Spangdahlem, Allemagne

latitude: 49-59N, longitude: 006-42E, altitude: 365 m

Observation

Le bulletin a été fait il y a 1 heure et 0 minutes, à 03:56 UTC
Vent 3 kt de est/sud-est
Température -1°C
Humidité 86%
Pression 1027 hPa
Visibilité 10 km ou plus
Ciel clair

METAR: ETAD 160356Z AUTO 12003KT 9999 CLR M01/M03 A3033 RMK AO2 SLP270 T10071026 $

Heure: 05:56 (04:56 UTC)

Prévision

Le bulletin a été fait il y a 8 heures et 3 minutes, à 20:53 UTC
Prévision valable du 15 à 21 UTC au 17 à 03 UTC
Vent 6 kt de direction variable
Visibilité 10 km ou plus
Ciel clair
Evoluant progressivement
du 17 à 00 UTC au 17 à 01 UTC
Vent 6 kt de direction variable
Visibilité: 1607 m
Ciel clair
brume

TAF: ETAD 152053Z 1521/1703 VRB06KT 9999 SKC QNH3029INS BECMG 1700/1701 VRB06KT 6000 BR SKC QNH3026INS TX13/1613Z TNM01/1607Z LAST NO AMDS AFT 1521 NEXT 1607

Observations et prévisions météorologiques de plus de 4000 aéroports (messages METAR et TAF).

Les stations disponibles sont représentées par des disques jaunes et rouges sur la carte.

Passer la souris dessus pour voir le nom de la station.

Cliquer dessus pour voir les observations et prévisions météorologiques.

Pour changer de carte: cliquez sur les boutons verts avec une croix noire pour zoomer, sur le bouton vert avec un tiret pour effectuer un zoom arrière, ou sur les flèches vertes pour les cartes adjacentes.


METAR-TAF: